sensor_id;sensor_type;location;lat;lon;timestamp;P1;durP1;ratioP1;P2;durP2;ratioP2
77038;SDS011;65970;50.476;4.840;2023-03-14T00:04:17;3.20;;;0.70;;
77038;SDS011;65970;50.476;4.840;2023-03-14T00:09:18;2.30;;;0.50;;
77038;SDS011;65970;50.476;4.840;2023-03-14T00:14:18;1.83;;;0.50;;
77038;SDS011;65970;50.476;4.840;2023-03-14T00:19:19;0.77;;;0.52;;
77038;SDS011;65970;50.476;4.840;2023-03-14T00:24:20;0.47;;;0.40;;
77038;SDS011;65970;50.476;4.840;2023-03-14T00:29:20;3.53;;;1.80;;
77038;SDS011;65970;50.476;4.840;2023-03-14T00:34:21;2.47;;;0.77;;
77038;SDS011;65970;50.476;4.840;2023-03-14T00:39:21;2.60;;;1.00;;
77038;SDS011;65970;50.476;4.840;2023-03-14T00:44:22;6.30;;;0.73;;
77038;SDS011;65970;50.476;4.840;2023-03-14T00:49:23;5.82;;;1.15;;
77038;SDS011;65970;50.476;4.840;2023-03-14T00:54:23;3.30;;;2.13;;
77038;SDS011;65970;50.476;4.840;2023-03-14T00:59:24;2.88;;;0.70;;
77038;SDS011;65970;50.476;4.840;2023-03-14T01:04:24;5.32;;;1.23;;
77038;SDS011;65970;50.476;4.840;2023-03-14T01:09:25;5.07;;;0.90;;
77038;SDS011;65970;50.476;4.840;2023-03-14T01:14:26;2.58;;;1.15;;
77038;SDS011;65970;50.476;4.840;2023-03-14T01:19:27;2.38;;;0.75;;
77038;SDS011;65970;50.476;4.840;2023-03-14T01:24:28;5.72;;;1.30;;
77038;SDS011;65970;50.476;4.840;2023-03-14T01:29:28;1.88;;;0.70;;
77038;SDS011;65970;50.476;4.840;2023-03-14T01:34:29;5.68;;;1.35;;
77038;SDS011;65970;50.476;4.840;2023-03-14T01:39:30;2.95;;;1.00;;
77038;SDS011;65970;50.476;4.840;2023-03-14T01:55:15;3.70;;;1.75;;
77038;SDS011;65970;50.476;4.840;2023-03-14T02:00:21;5.97;;;1.30;;
77038;SDS011;65970;50.476;4.840;2023-03-14T02:05:23;4.72;;;1.17;;
77038;SDS011;65970;50.476;4.840;2023-03-14T02:10:30;4.57;;;1.25;;
77038;SDS011;65970;50.476;4.840;2023-03-14T02:15:34;5.03;;;1.80;;
77038;SDS011;65970;50.476;4.840;2023-03-14T02:31:11;5.18;;;1.58;;
77038;SDS011;65970;50.476;4.840;2023-03-14T02:36:13;3.72;;;1.17;;
77038;SDS011;65970;50.476;4.840;2023-03-14T02:41:14;6.88;;;1.08;;
77038;SDS011;65970;50.476;4.840;2023-03-14T02:46:16;4.28;;;0.80;;
77038;SDS011;65970;50.476;4.840;2023-03-14T02:51:20;2.25;;;0.82;;
77038;SDS011;65970;50.476;4.840;2023-03-14T02:56:21;3.10;;;0.90;;
77038;SDS011;65970;50.476;4.840;2023-03-14T03:01:22;1.40;;;0.82;;
77038;SDS011;65970;50.476;4.840;2023-03-14T03:06:23;2.78;;;0.70;;
77038;SDS011;65970;50.476;4.840;2023-03-14T03:11:23;3.17;;;0.60;;
77038;SDS011;65970;50.476;4.840;2023-03-14T03:16:24;1.63;;;0.63;;
77038;SDS011;65970;50.476;4.840;2023-03-14T03:21:25;2.45;;;0.60;;
77038;SDS011;65970;50.476;4.840;2023-03-14T03:26:25;1.15;;;0.45;;
77038;SDS011;65970;50.476;4.840;2023-03-14T03:31:26;0.65;;;0.32;;
77038;SDS011;65970;50.476;4.840;2023-03-14T03:36:27;2.42;;;0.55;;
77038;SDS011;65970;50.476;4.840;2023-03-14T03:41:29;5.15;;;0.90;;
77038;SDS011;65970;50.476;4.840;2023-03-14T03:46:30;1.38;;;0.40;;
77038;SDS011;65970;50.476;4.840;2023-03-14T03:51:30;0.25;;;0.20;;
77038;SDS011;65970;50.476;4.840;2023-03-14T03:56:31;2.88;;;0.43;;
77038;SDS011;65970;50.476;4.840;2023-03-14T04:01:31;0.40;;;0.32;;
77038;SDS011;65970;50.476;4.840;2023-03-14T04:06:32;1.00;;;0.32;;
77038;SDS011;65970;50.476;4.840;2023-03-14T04:11:32;0.28;;;0.20;;
77038;SDS011;65970;50.476;4.840;2023-03-14T04:16:33;0.20;;;0.13;;
77038;SDS011;65970;50.476;4.840;2023-03-14T04:21:34;1.00;;;0.30;;
77038;SDS011;65970;50.476;4.840;2023-03-14T04:26:34;0.60;;;0.20;;
77038;SDS011;65970;50.476;4.840;2023-03-14T04:31:35;0.30;;;0.25;;
77038;SDS011;65970;50.476;4.840;2023-03-14T04:36:35;1.08;;;0.20;;
77038;SDS011;65970;50.476;4.840;2023-03-14T04:41:36;0.60;;;0.35;;
77038;SDS011;65970;50.476;4.840;2023-03-14T04:46:36;0.30;;;0.30;;
77038;SDS011;65970;50.476;4.840;2023-03-14T04:51:38;0.10;;;0.10;;
77038;SDS011;65970;50.476;4.840;2023-03-14T04:56:39;0.10;;;0.10;;
77038;SDS011;65970;50.476;4.840;2023-03-14T05:01:39;0.93;;;0.20;;
77038;SDS011;65970;50.476;4.840;2023-03-14T05:06:40;0.38;;;0.25;;
77038;SDS011;65970;50.476;4.840;2023-03-14T05:11:40;0.28;;;0.22;;
77038;SDS011;65970;50.476;4.840;2023-03-14T05:16:41;0.20;;;0.20;;
77038;SDS011;65970;50.476;4.840;2023-03-14T05:21:41;0.55;;;0.20;;
77038;SDS011;65970;50.476;4.840;2023-03-14T05:26:42;0.20;;;0.20;;
77038;SDS011;65970;50.476;4.840;2023-03-14T05:31:42;0.85;;;0.28;;
77038;SDS011;65970;50.476;4.840;2023-03-14T05:36:43;0.90;;;0.30;;
77038;SDS011;65970;50.476;4.840;2023-03-14T05:41:44;0.30;;;0.13;;
77038;SDS011;65970;50.476;4.840;2023-03-14T05:46:44;0.80;;;0.50;;
77038;SDS011;65970;50.476;4.840;2023-03-14T05:51:45;0.45;;;0.30;;
77038;SDS011;65970;50.476;4.840;2023-03-14T05:56:45;1.00;;;0.55;;
77038;SDS011;65970;50.476;4.840;2023-03-14T06:01:46;0.43;;;0.32;;
77038;SDS011;65970;50.476;4.840;2023-03-14T06:06:46;1.75;;;0.20;;
77038;SDS011;65970;50.476;4.840;2023-03-14T06:11:47;0.35;;;0.20;;
77038;SDS011;65970;50.476;4.840;2023-03-14T06:16:47;0.47;;;0.30;;
77038;SDS011;65970;50.476;4.840;2023-03-14T06:21:48;1.58;;;0.35;;
77038;SDS011;65970;50.476;4.840;2023-03-14T06:26:48;0.57;;;0.45;;
77038;SDS011;65970;50.476;4.840;2023-03-14T06:31:49;0.60;;;0.40;;
77038;SDS011;65970;50.476;4.840;2023-03-14T06:36:50;0.85;;;0.40;;
77038;SDS011;65970;50.476;4.840;2023-03-14T06:41:50;0.47;;;0.40;;
77038;SDS011;65970;50.476;4.840;2023-03-14T06:46:51;0.65;;;0.65;;
77038;SDS011;65970;50.476;4.840;2023-03-14T06:51:51;0.40;;;0.40;;
77038;SDS011;65970;50.476;4.840;2023-03-14T06:56:52;1.10;;;0.60;;
77038;SDS011;65970;50.476;4.840;2023-03-14T07:01:52;0.75;;;0.35;;
77038;SDS011;65970;50.476;4.840;2023-03-14T07:06:53;0.55;;;0.40;;
77038;SDS011;65970;50.476;4.840;2023-03-14T07:11:53;0.60;;;0.60;;
77038;SDS011;65970;50.476;4.840;2023-03-14T07:16:54;1.55;;;0.50;;
77038;SDS011;65970;50.476;4.840;2023-03-14T07:21:54;0.50;;;0.50;;
77038;SDS011;65970;50.476;4.840;2023-03-14T07:26:55;0.73;;;0.40;;
77038;SDS011;65970;50.476;4.840;2023-03-14T07:31:55;0.45;;;0.32;;
77038;SDS011;65970;50.476;4.840;2023-03-14T07:36:56;0.40;;;0.38;;
77038;SDS011;65970;50.476;4.840;2023-03-14T07:41:57;0.20;;;0.20;;
77038;SDS011;65970;50.476;4.840;2023-03-14T07:46:57;0.10;;;0.10;;
77038;SDS011;65970;50.476;4.840;2023-03-14T07:51:58;0.10;;;0.10;;
77038;SDS011;65970;50.476;4.840;2023-03-14T07:56:58;0.35;;;0.20;;
77038;SDS011;65970;50.476;4.840;2023-03-14T08:01:59;1.10;;;0.20;;
77038;SDS011;65970;50.476;4.840;2023-03-14T08:06:59;0.20;;;0.20;;
77038;SDS011;65970;50.476;4.840;2023-03-14T08:27:31;0.40;;;0.40;;
77038;SDS011;65970;50.476;4.840;2023-03-14T08:58:27;3.65;;;1.73;;
77038;SDS011;65970;50.476;4.840;2023-03-14T09:19:07;2.03;;;1.42;;
77038;SDS011;65970;50.476;4.840;2023-03-14T09:24:08;2.75;;;2.22;;
77038;SDS011;65970;50.476;4.840;2023-03-14T09:29:09;3.80;;;2.22;;
77038;SDS011;65970;50.476;4.840;2023-03-14T09:34:09;5.95;;;2.97;;
77038;SDS011;65970;50.476;4.840;2023-03-14T09:39:10;3.60;;;2.55;;
77038;SDS011;65970;50.476;4.840;2023-03-14T09:44:16;3.03;;;2.33;;
77038;SDS011;65970;50.476;4.840;2023-03-14T09:49:25;2.40;;;1.98;;
77038;SDS011;65970;50.476;4.840;2023-03-14T09:54:30;6.57;;;2.30;;
77038;SDS011;65970;50.476;4.840;2023-03-14T09:59:31;5.03;;;2.72;;
77038;SDS011;65970;50.476;4.840;2023-03-14T10:04:34;5.93;;;2.27;;
77038;SDS011;65970;50.476;4.840;2023-03-14T10:09:36;3.55;;;1.48;;
77038;SDS011;65970;50.476;4.840;2023-03-14T10:14:37;2.42;;;1.70;;
77038;SDS011;65970;50.476;4.840;2023-03-14T10:19:56;3.15;;;1.70;;
77038;SDS011;65970;50.476;4.840;2023-03-14T10:25:03;2.15;;;1.70;;
77038;SDS011;65970;50.476;4.840;2023-03-14T10:30:07;2.85;;;1.70;;
77038;SDS011;65970;50.476;4.840;2023-03-14T10:35:26;2.17;;;1.50;;
77038;SDS011;65970;50.476;4.840;2023-03-14T10:40:30;3.40;;;1.83;;
77038;SDS011;65970;50.476;4.840;2023-03-14T10:50:35;5.05;;;2.22;;
77038;SDS011;65970;50.476;4.840;2023-03-14T10:55:40;2.83;;;1.63;;
77038;SDS011;65970;50.476;4.840;2023-03-14T11:00:42;1.67;;;1.55;;
77038;SDS011;65970;50.476;4.840;2023-03-14T11:11:11;4.00;;;1.43;;
77038;SDS011;65970;50.476;4.840;2023-03-14T11:16:36;1.40;;;0.77;;
77038;SDS011;65970;50.476;4.840;2023-03-14T11:21:57;1.42;;;1.30;;
77038;SDS011;65970;50.476;4.840;2023-03-14T11:27:23;2.83;;;1.40;;
77038;SDS011;65970;50.476;4.840;2023-03-14T11:32:43;3.00;;;1.50;;
77038;SDS011;65970;50.476;4.840;2023-03-14T11:37:47;3.55;;;1.48;;
77038;SDS011;65970;50.476;4.840;2023-03-14T11:48:13;1.52;;;0.68;;
77038;SDS011;65970;50.476;4.840;2023-03-14T11:54:04;1.85;;;1.05;;
77038;SDS011;65970;50.476;4.840;2023-03-14T11:58:59;2.95;;;1.00;;
77038;SDS011;65970;50.476;4.840;2023-03-14T12:04:07;1.33;;;1.08;;
77038;SDS011;65970;50.476;4.840;2023-03-14T12:09:20;1.92;;;1.10;;
77038;SDS011;65970;50.476;4.840;2023-03-14T12:24:24;2.95;;;1.08;;
77038;SDS011;65970;50.476;4.840;2023-03-14T12:29:28;4.05;;;1.20;;
77038;SDS011;65970;50.476;4.840;2023-03-14T12:34:30;1.00;;;0.90;;
77038;SDS011;65970;50.476;4.840;2023-03-14T12:39:37;4.93;;;1.17;;
77038;SDS011;65970;50.476;4.840;2023-03-14T12:44:44;4.53;;;1.23;;
77038;SDS011;65970;50.476;4.840;2023-03-14T12:49:49;3.88;;;1.17;;
77038;SDS011;65970;50.476;4.840;2023-03-14T12:54:54;4.00;;;1.05;;
77038;SDS011;65970;50.476;4.840;2023-03-14T13:00:17;3.53;;;1.52;;
77038;SDS011;65970;50.476;4.840;2023-03-14T13:05:21;1.05;;;0.85;;
77038;SDS011;65970;50.476;4.840;2023-03-14T13:10:24;2.58;;;1.35;;
77038;SDS011;65970;50.476;4.840;2023-03-14T13:15:38;0.68;;;0.68;;
77038;SDS011;65970;50.476;4.840;2023-03-14T13:20:53;1.73;;;0.90;;
77038;SDS011;65970;50.476;4.840;2023-03-14T13:25:56;1.30;;;1.02;;
77038;SDS011;65970;50.476;4.840;2023-03-14T13:30:58;3.30;;;0.75;;
77038;SDS011;65970;50.476;4.840;2023-03-14T13:36:01;1.27;;;1.17;;
77038;SDS011;65970;50.476;4.840;2023-03-14T13:41:04;0.80;;;0.57;;
77038;SDS011;65970;50.476;4.840;2023-03-14T13:46:12;1.13;;;0.50;;
77038;SDS011;65970;50.476;4.840;2023-03-14T13:51:13;0.52;;;0.52;;
77038;SDS011;65970;50.476;4.840;2023-03-14T13:56:20;0.70;;;0.70;;
77038;SDS011;65970;50.476;4.840;2023-03-14T14:01:29;2.72;;;0.70;;
77038;SDS011;65970;50.476;4.840;2023-03-14T14:06:32;0.98;;;0.30;;
77038;SDS011;65970;50.476;4.840;2023-03-14T14:11:46;1.95;;;0.55;;
77038;SDS011;65970;50.476;4.840;2023-03-14T14:17:07;0.82;;;0.50;;
77038;SDS011;65970;50.476;4.840;2023-03-14T14:22:10;0.70;;;0.50;;
77038;SDS011;65970;50.476;4.840;2023-03-14T14:27:19;0.47;;;0.47;;
77038;SDS011;65970;50.476;4.840;2023-03-14T14:32:38;0.95;;;0.85;;
77038;SDS011;65970;50.476;4.840;2023-03-14T14:37:43;1.30;;;0.90;;
77038;SDS011;65970;50.476;4.840;2023-03-14T14:42:44;0.68;;;0.68;;
77038;SDS011;65970;50.476;4.840;2023-03-14T14:47:49;0.70;;;0.63;;
77038;SDS011;65970;50.476;4.840;2023-03-14T14:52:50;0.55;;;0.55;;
77038;SDS011;65970;50.476;4.840;2023-03-14T14:57:57;0.50;;;0.32;;
77038;SDS011;65970;50.476;4.840;2023-03-14T15:03:12;4.20;;;1.08;;
77038;SDS011;65970;50.476;4.840;2023-03-14T15:08:15;5.13;;;1.50;;
77038;SDS011;65970;50.476;4.840;2023-03-14T15:13:15;2.58;;;0.90;;
77038;SDS011;65970;50.476;4.840;2023-03-14T15:18:16;2.45;;;0.80;;
77038;SDS011;65970;50.476;4.840;2023-03-14T15:23:19;1.00;;;0.70;;
77038;SDS011;65970;50.476;4.840;2023-03-14T15:28:22;1.00;;;0.90;;
77038;SDS011;65970;50.476;4.840;2023-03-14T15:33:26;5.15;;;0.93;;
77038;SDS011;65970;50.476;4.840;2023-03-14T15:38:27;1.00;;;0.88;;
77038;SDS011;65970;50.476;4.840;2023-03-14T15:43:28;0.63;;;0.50;;
77038;SDS011;65970;50.476;4.840;2023-03-14T15:48:28;1.23;;;1.13;;
77038;SDS011;65970;50.476;4.840;2023-03-14T15:53:29;1.38;;;1.02;;
77038;SDS011;65970;50.476;4.840;2023-03-14T15:58:30;2.58;;;0.70;;
77038;SDS011;65970;50.476;4.840;2023-03-14T16:03:30;1.08;;;0.60;;
77038;SDS011;65970;50.476;4.840;2023-03-14T16:08:31;1.60;;;1.02;;
77038;SDS011;65970;50.476;4.840;2023-03-14T16:13:32;1.27;;;0.50;;
77038;SDS011;65970;50.476;4.840;2023-03-14T16:18:33;2.33;;;0.43;;
77038;SDS011;65970;50.476;4.840;2023-03-14T16:23:35;1.17;;;0.50;;
77038;SDS011;65970;50.476;4.840;2023-03-14T16:28:36;3.97;;;0.43;;
77038;SDS011;65970;50.476;4.840;2023-03-14T16:33:37;0.68;;;0.40;;
77038;SDS011;65970;50.476;4.840;2023-03-14T16:38:39;1.80;;;0.60;;
77038;SDS011;65970;50.476;4.840;2023-03-14T16:43:41;0.55;;;0.47;;
77038;SDS011;65970;50.476;4.840;2023-03-14T16:48:42;1.60;;;0.85;;
77038;SDS011;65970;50.476;4.840;2023-03-14T16:53:43;3.78;;;1.30;;
77038;SDS011;65970;50.476;4.840;2023-03-14T16:58:45;1.98;;;1.48;;
77038;SDS011;65970;50.476;4.840;2023-03-14T17:03:47;2.85;;;1.13;;
77038;SDS011;65970;50.476;4.840;2023-03-14T17:08:48;1.23;;;0.88;;
77038;SDS011;65970;50.476;4.840;2023-03-14T17:13:49;1.27;;;0.93;;
77038;SDS011;65970;50.476;4.840;2023-03-14T17:18:50;3.08;;;1.05;;
77038;SDS011;65970;50.476;4.840;2023-03-14T17:23:51;1.10;;;0.80;;
77038;SDS011;65970;50.476;4.840;2023-03-14T17:28:52;4.10;;;1.50;;
77038;SDS011;65970;50.476;4.840;2023-03-14T17:33:54;8.43;;;2.42;;
77038;SDS011;65970;50.476;4.840;2023-03-14T17:38:54;24.70;;;7.60;;
77038;SDS011;65970;50.476;4.840;2023-03-14T17:43:55;11.25;;;4.47;;
77038;SDS011;65970;50.476;4.840;2023-03-14T17:48:55;12.90;;;4.65;;
77038;SDS011;65970;50.476;4.840;2023-03-14T17:53:56;5.40;;;2.47;;
77038;SDS011;65970;50.476;4.840;2023-03-14T17:58:57;8.40;;;4.22;;
77038;SDS011;65970;50.476;4.840;2023-03-14T18:03:57;8.23;;;2.95;;
77038;SDS011;65970;50.476;4.840;2023-03-14T18:08:58;6.93;;;3.15;;
77038;SDS011;65970;50.476;4.840;2023-03-14T18:13:59;5.90;;;2.67;;
77038;SDS011;65970;50.476;4.840;2023-03-14T18:18:59;3.83;;;2.47;;
77038;SDS011;65970;50.476;4.840;2023-03-14T18:24:00;4.57;;;2.30;;
77038;SDS011;65970;50.476;4.840;2023-03-14T18:29:00;4.30;;;1.73;;
77038;SDS011;65970;50.476;4.840;2023-03-14T18:34:01;3.60;;;1.80;;
77038;SDS011;65970;50.476;4.840;2023-03-14T18:39:02;6.03;;;2.90;;
77038;SDS011;65970;50.476;4.840;2023-03-14T18:44:03;2.78;;;1.35;;
77038;SDS011;65970;50.476;4.840;2023-03-14T18:49:05;4.00;;;2.13;;
77038;SDS011;65970;50.476;4.840;2023-03-14T18:54:05;3.45;;;2.25;;
77038;SDS011;65970;50.476;4.840;2023-03-14T18:59:06;2.55;;;1.98;;
77038;SDS011;65970;50.476;4.840;2023-03-14T19:04:08;2.22;;;1.67;;
77038;SDS011;65970;50.476;4.840;2023-03-14T19:09:10;5.57;;;2.78;;
77038;SDS011;65970;50.476;4.840;2023-03-14T19:14:13;7.72;;;2.30;;
77038;SDS011;65970;50.476;4.840;2023-03-14T19:19:14;3.72;;;2.22;;
77038;SDS011;65970;50.476;4.840;2023-03-14T19:24:16;2.28;;;1.73;;
77038;SDS011;65970;50.476;4.840;2023-03-14T19:29:18;2.53;;;1.52;;
77038;SDS011;65970;50.476;4.840;2023-03-14T19:34:18;6.40;;;2.28;;
77038;SDS011;65970;50.476;4.840;2023-03-14T19:39:19;12.55;;;4.57;;
77038;SDS011;65970;50.476;4.840;2023-03-14T19:44:19;17.25;;;5.65;;
77038;SDS011;65970;50.476;4.840;2023-03-14T19:49:20;7.45;;;4.35;;
77038;SDS011;65970;50.476;4.840;2023-03-14T19:54:21;8.02;;;5.07;;
77038;SDS011;65970;50.476;4.840;2023-03-14T19:59:21;9.27;;;3.38;;
77038;SDS011;65970;50.476;4.840;2023-03-14T20:04:22;7.45;;;2.78;;
77038;SDS011;65970;50.476;4.840;2023-03-14T20:09:23;4.90;;;2.40;;
77038;SDS011;65970;50.476;4.840;2023-03-14T20:14:24;6.82;;;2.67;;
77038;SDS011;65970;50.476;4.840;2023-03-14T20:19:24;8.43;;;2.63;;
77038;SDS011;65970;50.476;4.840;2023-03-14T20:24:25;7.03;;;2.92;;
77038;SDS011;65970;50.476;4.840;2023-03-14T20:29:26;7.00;;;3.40;;
77038;SDS011;65970;50.476;4.840;2023-03-14T20:34:27;3.53;;;2.83;;
77038;SDS011;65970;50.476;4.840;2023-03-14T20:39:27;10.43;;;3.67;;
77038;SDS011;65970;50.476;4.840;2023-03-14T20:44:28;5.28;;;3.50;;
77038;SDS011;65970;50.476;4.840;2023-03-14T20:49:28;7.45;;;3.25;;
77038;SDS011;65970;50.476;4.840;2023-03-14T20:54:29;6.82;;;2.63;;
77038;SDS011;65970;50.476;4.840;2023-03-14T20:59:30;6.72;;;2.88;;
77038;SDS011;65970;50.476;4.840;2023-03-14T21:04:30;6.30;;;2.38;;
77038;SDS011;65970;50.476;4.840;2023-03-14T21:09:31;6.03;;;2.47;;
77038;SDS011;65970;50.476;4.840;2023-03-14T21:14:32;7.45;;;2.30;;
77038;SDS011;65970;50.476;4.840;2023-03-14T21:19:33;9.55;;;3.97;;
77038;SDS011;65970;50.476;4.840;2023-03-14T21:24:33;7.35;;;3.10;;
77038;SDS011;65970;50.476;4.840;2023-03-14T21:29:34;5.45;;;2.53;;
77038;SDS011;65970;50.476;4.840;2023-03-14T21:34:34;4.80;;;2.50;;
77038;SDS011;65970;50.476;4.840;2023-03-14T21:39:35;2.80;;;1.90;;
77038;SDS011;65970;50.476;4.840;2023-03-14T21:44:36;7.38;;;2.40;;
77038;SDS011;65970;50.476;4.840;2023-03-14T21:49:36;7.22;;;2.78;;
77038;SDS011;65970;50.476;4.840;2023-03-14T21:54:37;5.65;;;2.85;;
77038;SDS011;65970;50.476;4.840;2023-03-14T21:59:38;4.18;;;2.35;;
77038;SDS011;65970;50.476;4.840;2023-03-14T22:04:38;5.70;;;3.03;;
77038;SDS011;65970;50.476;4.840;2023-03-14T22:09:40;10.85;;;3.05;;
77038;SDS011;65970;50.476;4.840;2023-03-14T22:14:41;5.53;;;2.08;;
77038;SDS011;65970;50.476;4.840;2023-03-14T22:19:42;6.80;;;2.90;;
77038;SDS011;65970;50.476;4.840;2023-03-14T22:24:43;4.25;;;2.38;;
77038;SDS011;65970;50.476;4.840;2023-03-14T22:29:43;4.30;;;2.90;;
77038;SDS011;65970;50.476;4.840;2023-03-14T22:34:44;5.15;;;2.55;;
77038;SDS011;65970;50.476;4.840;2023-03-14T22:39:45;5.15;;;2.42;;
77038;SDS011;65970;50.476;4.840;2023-03-14T22:44:45;6.97;;;3.08;;
77038;SDS011;65970;50.476;4.840;2023-03-14T22:49:46;6.90;;;2.90;;
77038;SDS011;65970;50.476;4.840;2023-03-14T22:54:46;4.22;;;2.05;;
77038;SDS011;65970;50.476;4.840;2023-03-14T22:59:47;5.20;;;2.33;;
77038;SDS011;65970;50.476;4.840;2023-03-14T23:04:47;5.93;;;2.40;;
77038;SDS011;65970;50.476;4.840;2023-03-14T23:09:48;5.13;;;2.58;;
77038;SDS011;65970;50.476;4.840;2023-03-14T23:14:49;2.70;;;1.88;;
77038;SDS011;65970;50.476;4.840;2023-03-14T23:19:50;6.80;;;1.77;;
77038;SDS011;65970;50.476;4.840;2023-03-14T23:24:51;3.03;;;1.75;;
77038;SDS011;65970;50.476;4.840;2023-03-14T23:29:51;2.00;;;1.17;;
77038;SDS011;65970;50.476;4.840;2023-03-14T23:34:52;2.00;;;1.27;;
77038;SDS011;65970;50.476;4.840;2023-03-14T23:39:53;4.13;;;1.58;;
77038;SDS011;65970;50.476;4.840;2023-03-14T23:44:53;2.22;;;1.00;;
77038;SDS011;65970;50.476;4.840;2023-03-14T23:49:54;14.93;;;1.40;;
77038;SDS011;65970;50.476;4.840;2023-03-14T23:54:54;3.00;;;1.27;;
77038;SDS011;65970;50.476;4.840;2023-03-14T23:59:55;4.13;;;1.13;;
